Airfield :
LOGIN :

Register | Disclaimer

   EN    FR    IT 

 










Legend :    VFR   Marginal VFR   IFR   Intensive IFR   Very Intensive IFR
Visi :
Ceiling :
>= 8 km
>= 3000ft
5 to 8 km
1000 to 3000 ft
1500m to 5 km
500 to 1000 ft
800 to 1500m
200 to 500 ft
< 800m
< 200 ft
Symbols :   Thunderstorms  Fog  Heavy snow  Heavy precipitations  Wind > 20 kt
SIGMETs :     Misc.  Thunderstorms  Icing  Turbulence  Mountain Waves  Volcanic Ashes







- Airport Elevation : 142 ft
- IATA code : FLR


LIRQ - Firenze Amerigo Vespucci

CURRENT METAR :
  • 210050Z 20005KT 130V260 9999 FEW080 17/15 Q1013

EXPIRED METARs :
  • 210020Z 21005KT 9999 FEW080 17/15 Q1013
  • 202350Z VRB02KT 9999 FEW080 16/15 Q1014
  • 202320Z VRB01KT 9999 SCT080 16/15 Q1014
  • 202250Z 22003KT 9999 SCT080 17/15 Q1014
  • 202220Z 19003KT 9999 SCT080 17/16 Q1014

TAF TAF LIRQ
Valid from the 21 at 00:00 until the 22 at 00:00 UTC


202300Z 2100/2124 04006KT 9999 SCT030
TEMPO 2110/2118 4000 TSRA
TEMPO 2120/2124 4000 TSRA
No reported NOTAMs for that airfield.
2 SIGMETs reported for the Milano FIR (LIMM) :
 
Embedded thunderstorms
LIMM SIGMET 3 VALID 202105/210105 LIIP
LIMM MILANO FIR EMBD TS OBS WI N4606 E00903 - N4625 E00827 - N4553 E00645 - N4406 E00652 - N4359 E00733 - N4429 E00847 - N4442 E00916 - N4606 E00903 TOP FL320 STNR NC=
Embedded thunderstorms
LIMM SIGMET 1 VALID 210105/210505 LIIP
LIMM MILANO FIR EMBD TS FCST WI N4606 E00903 - N4625 E00827 - N4553 E00645 - N4406 E00652 - N4359 E00733 - N4429 E00847 - N4442 E00916 - N4606 E00903 TOP FL320 STNR NC=



MET'MAP, your aeronautical weather chart ! - Copyright ORBIFLY December 2007 - Disclaimer

ORBIFLY MET'MAP TEAM :

Programming & Development : Alexandra Zaïnal
Concept & Development : Baudouin d'Aumeries
Co-Development & Prog : Marc-Olivier Méhu
Technical & hardware support : Manuel Goepfert

Contact : metmap@orbifly.com




SOURCES & CREDITS :

   NOAA